Main page
METAR-TAF:

METAR-TAF

Airports :

Salamanca Airport

Salamanca, Spain

latitude: 40-57N, longitude: 005-30W, elevation: 793 m

Current weather observation

The report was made 19 minutes ago, at 04:00 UTC
Calm wind
Temperature 4°C
Humidity 100%
Pressure 1019 hPa
Visibility: 0150 m
fog

METAR: LESA 170400Z AUTO 00000KT 0150 R21/0550N FG VV001 04/04 Q1019

Time: 06:19 (04:19 UTC)

Forecast

The report was made 5 hours and 19 minutes ago, at 23:00 UTC
Forecast valid from 17 at 00 UTC to 17 at 24 UTC
Wind 4 kt from variable directions
Visibility 10 km or more
no clouds below 1500 m and no cumulonimbus
Probability 40% :
Temporary
from 17 at 00 UTC to 17 at 10 UTC
Visibility: 1500 m
Broken clouds at a height of 800 ft
mist
Probability 30% :
Temporary
from 17 at 05 UTC to 17 at 09 UTC
Visibility: 0300 m
Broken clouds at a height of 300 ft
fog

TAF: LESA 162300Z 1700/1724 VRB04KT CAVOK TX20/1714Z TN05/1706Z PROB40 TEMPO 1700/1710 1500 BR BKN008 PROB30 TEMPO 1705/1709 0300 FG BKN003

Weather observations and forecasts of more than 4000 airports (METAR and TAF reports).

The available stations are represented by yellow and red dots on the map.

Hover mouse over dot to see the name of the station.

Then click to see weather observations and forecasts.

To change the map : click on the green buttons with a black cross to zoom in, on the green button with a dash to zoom out, or on the green arrows for adjacent maps.


METAR-TAF: